Time;durP1;ratioP1;P1;durP2;ratioP2;P2;SDS_P1;SDS_P2;PMS_P1;PMS_P2;Temp;Humidity;BMP_temperature;BMP_pressure;BME280_temperature;BME280_humidity;BME280_pressure;Samples;Min_cycle;Max_cycle;Signal;HPM_P1;HPM_P2
2023/04/04 00:00:37;;;;;;;0.52;0.52;;;;;;;4.82;56.41;103154.84;5089627;28;20428;-83
2023/04/04 00:03:03;;;;;;;0.20;0.20;;;;;;;4.78;57.43;103158.16;5091927;28;20040;-82
2023/04/04 00:05:29;;;;;;;0.10;0.10;;;;;;;4.76;56.47;103154.59;5089968;28;20063;-83
2023/04/04 00:07:55;;;;;;;0.10;0.10;;;;;;;4.74;56.36;103152.72;5089095;28;20029;-82
2023/04/04 00:10:21;;;;;;;0.10;0.10;;;;;;;4.70;57.23;103151.69;5081711;28;20497;-82
2023/04/04 00:12:47;;;;;;;0.10;0.10;;;;;;;4.67;57.71;103155.09;5085482;28;20024;-84
2023/04/04 00:15:13;;;;;;;0.10;0.10;;;;;;;4.62;58.01;103151.38;5091571;28;20039;-82
2023/04/04 00:17:40;;;;;;;0.10;0.10;;;;;;;4.60;57.54;103146.88;5079999;28;20466;-82
2023/04/04 00:20:06;;;;;;;0.10;0.10;;;;;;;4.56;57.39;103148.50;5089398;28;20024;-85
2023/04/04 00:22:32;;;;;;;0.30;0.30;;;;;;;4.54;56.95;103143.16;5088390;28;20039;-83
2023/04/04 00:24:58;;;;;;;0.20;0.20;;;;;;;4.51;57.65;103137.81;5084166;28;20020;-83
2023/04/04 00:27:25;;;;;;;0.20;0.20;;;;;;;4.47;57.33;103135.84;5084464;28;20035;-84
2023/04/04 00:29:51;;;;;;;0.10;0.10;;;;;;;4.42;57.52;103128.63;5091456;28;20046;-84
2023/04/04 00:32:17;;;;;;;0.10;0.10;;;;;;;4.40;56.89;103133.81;5091938;28;20031;-82
2023/04/04 00:34:43;;;;;;;0.10;0.10;;;;;;;4.36;57.48;103126.63;5083059;28;20024;-84
2023/04/04 00:37:11;;;;;;;0.20;0.20;;;;;;;4.34;57.67;103128.31;5088347;28;20038;-84
2023/04/04 00:39:37;;;;;;;0.10;0.10;;;;;;;4.30;58.24;103124.66;5082108;28;20028;-84
2023/04/04 00:42:05;;;;;;;0.10;0.10;;;;;;;4.29;57.67;103124.59;5092091;28;20099;-83
2023/04/04 00:44:32;;;;;;;0.20;0.20;;;;;;;4.26;57.50;103130.63;5097117;28;20031;-84
2023/04/04 00:46:58;;;;;;;1.17;1.17;;;;;;;4.24;57.76;103118.22;5089884;28;20028;-82
2023/04/04 00:49:24;;;;;;;0.10;0.10;;;;;;;4.20;57.92;103120.75;5089069;28;20122;-83
2023/04/04 00:51:50;;;;;;;0.10;0.10;;;;;;;4.18;57.89;103127.63;5081255;28;20037;-84
2023/04/04 00:54:16;;;;;;;0.20;0.20;;;;;;;4.16;57.34;103118.81;5080490;28;20063;-84
2023/04/04 00:56:42;;;;;;;0.10;0.10;;;;;;;4.14;57.74;103120.47;5090913;28;20031;-84
2023/04/04 00:59:08;;;;;;;0.10;0.10;;;;;;;4.11;56.88;103125.59;5094555;28;20122;-84
2023/04/04 01:01:35;;;;;;;0.10;0.10;;;;;;;4.09;57.49;103127.25;5095763;28;20074;-84
2023/04/04 01:04:02;;;;;;;0.10;0.10;;;;;;;4.08;57.16;103121.94;5085142;28;20043;-85
2023/04/04 01:06:29;;;;;;;0.10;0.10;;;;;;;4.05;57.16;103133.22;5090805;28;20501;-84
2023/04/04 01:08:56;;;;;;;0.10;0.10;;;;;;;4.02;57.19;103127.81;5092509;28;20024;-84
2023/04/04 01:11:22;;;;;;;0.17;0.17;;;;;;;4.00;57.54;103134.69;5084900;28;20031;-83
2023/04/04 01:13:49;;;;;;;0.20;0.20;;;;;;;3.97;57.56;103129.34;5090361;28;20028;-83
2023/04/04 01:16:15;;;;;;;0.10;0.10;;;;;;;3.94;57.74;103130.09;5085500;28;20099;-84
2023/04/04 01:18:42;;;;;;;0.10;0.10;;;;;;;3.92;57.43;103129.13;5087203;28;20153;-84
2023/04/04 01:21:12;;;;;;;0.10;0.10;;;;;;;3.89;58.40;103124.66;5092586;28;20052;-83
2023/04/04 01:24:00;;;;;;;0.20;0.20;;;;;;;3.92;58.09;103131.75;5092227;28;20132;-84
2023/04/04 01:26:26;;;;;;;0.10;0.10;;;;;;;3.82;59.10;103126.94;5084820;28;20028;-85
2023/04/04 01:28:53;;;;;;;0.10;0.10;;;;;;;3.78;58.69;103120.66;5091707;28;20066;-84
2023/04/04 01:31:36;;;;;;;0.10;0.10;;;;;;;3.76;57.61;103118.78;5091688;28;20031;-84
2023/04/04 01:39:52;;;;;;;0.10;0.10;;;;;;;3.67;57.67;103116.66;5118662;27;20880;-85
2023/04/04 01:42:21;;;;;;;0.10;0.10;;;;;;;3.65;57.92;103118.28;5100526;27;20036;-84
2023/04/04 01:44:53;;;;;;;0.30;0.30;;;;;;;3.63;58.15;103114.72;5110252;28;20528;-84
2023/04/04 01:47:19;;;;;;;0.20;0.20;;;;;;;3.63;57.89;103120.84;5106913;28;20096;-84
2023/04/04 01:49:45;;;;;;;0.10;0.10;;;;;;;3.62;58.68;103112.94;5099815;28;20301;-85
2023/04/04 01:52:11;;;;;;;0.10;0.10;;;;;;;3.60;58.63;103119.81;5098713;28;20048;-85
2023/04/04 01:54:37;;;;;;;0.13;0.13;;;;;;;3.59;58.30;103112.78;5107818;28;20043;-85
2023/04/04 01:57:03;;;;;;;0.10;0.10;;;;;;;3.58;58.21;103116.22;5094686;28;20028;-84
2023/04/04 01:59:29;;;;;;;0.13;0.13;;;;;;;3.55;58.01;103123.13;5104349;28;20107;-85
2023/04/04 02:01:56;;;;;;;0.10;0.10;;;;;;;3.53;58.01;103113.41;5110930;28;20035;-84
2023/04/04 02:04:22;;;;;;;0.20;0.20;;;;;;;3.51;58.73;103113.31;5099907;28;20029;-85
2023/04/04 02:06:49;;;;;;;0.10;0.10;;;;;;;3.49;58.50;103115.00;5098095;28;21050;-85
2023/04/04 02:09:15;;;;;;;0.10;0.10;;;;;;;3.46;59.02;103117.44;5104606;28;20028;-84
2023/04/04 02:11:41;;;;;;;0.10;0.10;;;;;;;3.43;58.43;103117.31;5107297;28;20028;-84
2023/04/04 02:14:08;;;;;;;0.10;0.10;;;;;;;3.38;59.42;103116.22;5102319;28;20036;-84
2023/04/04 02:16:34;;;;;;;0.10;0.10;;;;;;;3.37;58.59;103127.53;5097503;28;20028;-84
2023/04/04 02:19:00;;;;;;;0.17;0.17;;;;;;;3.36;58.85;103129.22;5097837;28;20027;-85
2023/04/04 02:21:27;;;;;;;0.15;0.15;;;;;;;3.35;58.45;103129.16;5100701;28;20040;-84
2023/04/04 02:23:54;;;;;;;0.10;0.10;;;;;;;3.32;58.93;103135.16;5106250;28;20031;-81
2023/04/04 02:26:20;;;;;;;0.17;0.17;;;;;;;3.31;59.14;103132.47;5100027;28;20035;-82
2023/04/04 02:28:46;;;;;;;0.30;0.30;;;;;;;3.28;58.45;103132.31;5105893;28;20039;-83
2023/04/04 02:31:12;;;;;;;0.10;0.10;;;;;;;3.24;58.92;103132.19;5116689;28;20020;-82
2023/04/04 02:33:38;;;;;;;0.10;0.10;;;;;;;3.22;59.48;103138.19;5114248;27;20036;-83
2023/04/04 02:36:04;;;;;;;0.10;0.10;;;;;;;3.19;59.23;103132.78;5115228;28;20043;-82
2023/04/04 02:38:31;;;;;;;0.20;0.20;;;;;;;3.14;60.00;103135.19;5101979;28;20509;-82
2023/04/04 02:40:57;;;;;;;0.20;0.20;;;;;;;3.14;59.46;103129.97;5099902;28;20085;-83
2023/04/04 02:43:23;;;;;;;0.15;0.15;;;;;;;3.12;59.88;103121.13;5100820;28;20027;-83
2023/04/04 02:45:50;;;;;;;0.20;0.20;;;;;;;3.12;59.33;103121.13;5099099;28;20428;-83
2023/04/04 02:48:16;;;;;;;0.10;0.10;;;;;;;3.10;59.05;103109.66;5104781;28;20027;-83
2023/04/04 02:50:42;;;;;;;0.20;0.20;;;;;;;3.09;59.57;103110.53;5103738;28;20019;-82
2023/04/04 02:53:08;;;;;;;0.10;0.10;;;;;;;3.09;59.14;103107.91;5080561;28;20020;-82
2023/04/04 02:55:35;;;;;;;0.10;0.10;;;;;;;3.08;59.42;103106.09;5090794;28;20016;-82
2023/04/04 02:58:01;;;;;;;0.10;0.10;;;;;;;3.06;58.95;103099.88;5089318;28;20436;-81
2023/04/04 03:00:27;;;;;;;0.20;0.20;;;;;;;3.04;59.73;103101.50;5086190;28;20036;-81
2023/04/04 03:02:54;;;;;;;0.10;0.10;;;;;;;3.03;59.49;103094.50;5092744;28;20051;-80
2023/04/04 03:05:22;;;;;;;0.20;0.20;;;;;;;3.02;59.42;103092.72;5093520;28;20058;-81
2023/04/04 03:07:51;;;;;;;0.20;0.20;;;;;;;3.00;60.25;103091.72;5094085;28;20024;-80
2023/04/04 03:10:17;;;;;;;0.20;0.20;;;;;;;2.98;59.82;103085.50;5094971;28;20076;-81
2023/04/04 03:12:45;;;;;;;0.10;0.10;;;;;;;2.98;60.15;103088.13;5087459;28;20030;-81
2023/04/04 03:15:11;;;;;;;2.90;1.08;;;;;;;2.96;59.69;103087.19;5091100;28;20041;-81
2023/04/04 03:17:37;;;;;;;0.20;0.20;;;;;;;2.92;59.96;103087.00;5084990;28;20150;-81
2023/04/04 03:20:04;;;;;;;0.10;0.10;;;;;;;2.89;59.74;103086.88;5097373;28;20396;-81
2023/04/04 03:22:30;;;;;;;0.20;0.20;;;;;;;2.86;59.60;103088.47;5090332;28;20454;-81
2023/04/04 03:24:57;;;;;;;0.20;0.20;;;;;;;2.83;59.88;103097.06;5107794;28;20028;-79
2023/04/04 03:27:23;;;;;;;0.10;0.10;;;;;;;2.80;59.83;103109.09;5094257;28;20591;-79
2023/04/04 03:29:49;;;;;;;0.10;0.10;;;;;;;2.77;60.72;103101.09;5102561;28;20030;-81
2023/04/04 03:32:17;;;;;;;0.13;0.13;;;;;;;2.74;60.70;103108.00;5089621;28;20040;-78
2023/04/04 03:34:43;;;;;;;0.10;0.10;;;;;;;2.70;59.69;103111.25;5096547;28;20024;-80
2023/04/04 03:37:09;;;;;;;0.20;0.20;;;;;;;2.67;60.71;103105.88;5095573;28;20429;-80
2023/04/04 03:39:35;;;;;;;0.20;0.20;;;;;;;2.66;61.21;103108.44;5094106;28;20516;-80
2023/04/04 03:42:01;;;;;;;0.10;0.10;;;;;;;2.63;60.50;103097.78;5088184;28;20031;-80
2023/04/04 03:44:28;;;;;;;0.20;0.20;;;;;;;2.62;60.74;103104.75;5079847;28;20025;-81
2023/04/04 03:46:54;;;;;;;0.10;0.10;;;;;;;2.59;60.08;103113.38;5091351;28;20052;-81
2023/04/04 03:49:20;;;;;;;0.10;0.10;;;;;;;2.59;60.78;103108.13;5085917;28;20024;-81
2023/04/04 03:51:47;;;;;;;0.15;0.15;;;;;;;2.58;60.67;103105.44;5100859;28;20031;-82
2023/04/04 03:54:14;;;;;;;0.20;0.20;;;;;;;2.55;60.22;103116.63;5084347;28;20028;-81
2023/04/04 03:56:40;;;;;;;0.20;0.20;;;;;;;2.52;59.55;103111.25;5091397;28;20825;-82
2023/04/04 03:59:06;;;;;;;0.10;0.10;;;;;;;2.50;59.92;103112.88;5093125;28;20028;-81
2023/04/04 04:01:33;;;;;;;0.10;0.10;;;;;;;2.47;59.83;103107.53;5093684;28;20035;-81
2023/04/04 04:04:00;;;;;;;0.10;0.10;;;;;;;2.46;59.74;103099.59;5084359;28;20043;-81
2023/04/04 04:06:26;;;;;;;0.20;0.20;;;;;;;2.43;60.46;103100.34;5086260;28;20025;-81
2023/04/04 04:08:52;;;;;;;0.17;0.17;;;;;;;2.42;60.21;103101.16;5088743;28;20122;-80
2023/04/04 04:11:18;;;;;;;0.20;0.20;;;;;;;2.41;59.88;103108.09;5086180;28;20498;-82
2023/04/04 04:13:44;;;;;;;0.20;0.20;;;;;;;2.40;59.64;103108.03;5087986;28;20027;-84
2023/04/04 04:16:11;;;;;;;0.20;0.20;;;;;;;2.39;60.21;103109.75;5082478;28;20742;-82
2023/04/04 04:18:37;;;;;;;0.20;0.20;;;;;;;2.41;59.84;103104.59;5082253;28;20036;-81
2023/04/04 04:21:03;;;;;;;0.20;0.20;;;;;;;2.39;61.02;103098.38;5079097;28;20214;-82
2023/04/04 04:23:30;;;;;;;1.88;1.30;;;;;;;2.35;60.71;103101.66;5084960;28;20024;-82
2023/04/04 04:25:56;;;;;;;0.20;0.20;;;;;;;2.33;61.03;103103.28;5085630;28;20521;-81
2023/04/04 04:28:23;;;;;;;0.20;0.20;;;;;;;2.32;60.98;103111.97;5085775;28;20103;-80
2023/04/04 04:30:50;;;;;;;0.35;0.35;;;;;;;2.31;61.39;103110.19;5075824;28;20056;-79
2023/04/04 04:33:16;;;;;;;0.20;0.20;;;;;;;2.31;61.16;103115.44;5092908;28;20063;-80
2023/04/04 04:35:42;;;;;;;0.20;0.20;;;;;;;2.29;61.32;103103.97;5087714;28;20040;-81
2023/04/04 04:38:09;;;;;;;0.15;0.15;;;;;;;2.29;60.34;103109.22;5085576;28;20020;-83
2023/04/04 04:40:36;;;;;;;0.17;0.17;;;;;;;2.26;60.83;103108.22;5091266;28;20028;-83
2023/04/04 04:43:02;;;;;;;0.10;0.10;;;;;;;2.26;60.65;103116.06;5086284;28;20057;-84
2023/04/04 04:45:28;;;;;;;0.22;0.22;;;;;;;2.25;60.97;103116.00;5087507;28;20031;-84
2023/04/04 04:47:54;;;;;;;0.20;0.20;;;;;;;2.23;60.13;103115.94;5079986;28;20031;-83
2023/04/04 04:50:21;;;;;;;0.10;0.10;;;;;;;2.22;60.12;103116.75;5084347;28;20036;-82
2023/04/04 04:52:51;;;;;;;0.75;0.75;;;;;;;2.21;61.08;103120.16;5087324;28;20031;-83
2023/04/04 04:55:17;;;;;;;0.20;0.20;;;;;;;2.20;60.56;103113.13;5096972;28;20048;-84
2023/04/04 04:57:47;;;;;;;0.10;0.10;;;;;;;2.20;60.39;103120.97;5088351;28;20023;-82
2023/04/04 05:00:13;;;;;;;0.20;0.20;;;;;;;2.18;61.14;103122.66;5087511;28;20114;-83
2023/04/04 05:02:40;;;;;;;0.20;0.20;;;;;;;2.17;60.72;103114.69;5085322;28;20032;-82
2023/04/04 05:05:06;;;;;;;0.15;0.15;;;;;;;2.16;60.84;103121.66;5082470;28;20405;-83
2023/04/04 05:07:32;;;;;;;0.20;0.20;;;;;;;2.17;60.93;103117.31;5079014;28;20028;-83
2023/04/04 05:09:58;;;;;;;1.77;1.67;;;;;;;2.17;61.20;103123.47;5086063;28;20020;-82
2023/04/04 05:12:24;;;;;;;0.20;0.20;;;;;;;2.18;61.11;103129.56;5080988;28;20388;-84
2023/04/04 05:14:50;;;;;;;0.28;0.28;;;;;;;2.18;61.61;103125.25;5087317;28;20039;-83
2023/04/04 05:17:16;;;;;;;0.20;0.20;;;;;;;2.18;60.49;103122.66;5079204;28;20032;-85
2023/04/04 05:19:42;;;;;;;0.10;0.10;;;;;;;2.20;61.19;103118.38;5083115;28;20384;-84
2023/04/04 05:22:08;;;;;;;0.20;0.20;;;;;;;2.19;61.12;103127.03;5080516;28;20532;-83
2023/04/04 05:24:34;;;;;;;0.20;0.20;;;;;;;2.18;60.71;103122.66;5092596;28;20028;-84
2023/04/04 05:27:01;;;;;;;0.82;0.55;;;;;;;2.17;60.78;103125.16;5083426;28;20032;-84
2023/04/04 05:29:28;;;;;;;0.40;0.40;;;;;;;2.18;60.58;103124.34;5083612;28;20115;-83
2023/04/04 05:31:54;;;;;;;0.10;0.10;;;;;;;2.19;60.61;103123.53;5083789;28;20031;-83
2023/04/04 05:34:20;;;;;;;0.10;0.10;;;;;;;2.21;61.61;103133.25;5089703;28;20028;-81
2023/04/04 05:36:46;;;;;;;0.17;0.17;;;;;;;2.24;62.13;103136.03;5082723;28;20028;-82
2023/04/04 05:39:12;;;;;;;0.20;0.20;;;;;;;2.28;61.99;103141.41;5083526;28;20024;-82
2023/04/04 05:41:38;;;;;;;0.20;0.20;;;;;;;2.30;62.42;103131.94;5081967;28;20040;-82
2023/04/04 05:44:05;;;;;;;0.35;0.35;;;;;;;2.34;62.63;103133.88;5078962;28;20115;-81
2023/04/04 05:46:31;;;;;;;0.20;0.20;;;;;;;2.35;62.60;103143.53;5080209;28;20082;-82
2023/04/04 05:48:57;;;;;;;0.55;0.47;;;;;;;2.38;62.84;103133.19;5082914;28;20024;-82
2023/04/04 05:51:23;;;;;;;0.20;0.20;;;;;;;2.41;62.96;103138.59;5083746;28;20058;-81
2023/04/04 05:53:49;;;;;;;0.30;0.30;;;;;;;2.45;62.92;103135.31;5083987;28;20056;-87
2023/04/04 05:56:15;;;;;;;1.20;1.20;;;;;;;2.49;62.66;103137.25;5083816;28;20032;-85
2023/04/04 05:58:42;;;;;;;1.77;1.67;;;;;;;2.52;62.87;103131.31;5088467;28;20024;-84
2023/04/04 06:01:09;;;;;;;0.20;0.20;;;;;;;2.54;61.62;103135.81;5085492;28;20036;-85
2023/04/04 06:03:35;;;;;;;0.20;0.20;;;;;;;2.57;61.36;103135.94;5080765;28;20111;-81
2023/04/04 06:06:03;;;;;;;0.20;0.20;;;;;;;2.59;61.74;103130.78;5079142;28;20040;-81
2023/04/04 06:08:30;;;;;;;0.20;0.20;;;;;;;2.64;61.74;103128.38;5077874;28;20142;-82
2023/04/04 06:10:56;;;;;;;0.20;0.20;;;;;;;2.69;61.73;103129.50;5088026;28;20074;-81
2023/04/04 06:13:22;;;;;;;0.20;0.20;;;;;;;2.74;61.65;103135.88;5075977;28;20024;-82
2023/04/04 06:15:48;;;;;;;0.60;0.60;;;;;;;2.78;62.12;103134.31;5080805;28;20119;-83
2023/04/04 06:18:16;;;;;;;0.77;0.77;;;;;;;2.83;61.45;103122.31;5077004;28;20032;-81
2023/04/04 06:20:42;;;;;;;0.10;0.10;;;;;;;2.89;61.75;103130.47;5081648;28;20078;-81
2023/04/04 06:23:08;;;;;;;0.20;0.20;;;;;;;2.94;61.69;103126.41;5076173;28;20456;-81
2023/04/04 06:25:36;;;;;;;0.20;0.20;;;;;;;3.01;61.48;103135.44;5088464;28;20625;-81
2023/04/04 06:28:02;;;;;;;0.10;0.10;;;;;;;3.05;62.04;103130.44;5083004;28;20102;-82
2023/04/04 06:30:29;;;;;;;0.10;0.10;;;;;;;3.13;61.31;103133.41;5085128;28;20024;-82
2023/04/04 06:32:56;;;;;;;0.10;0.10;;;;;;;3.19;61.57;103128.47;5075546;28;20186;-82
2023/04/04 06:35:22;;;;;;;0.10;0.10;;;;;;;3.24;61.48;103123.44;5086239;28;20033;-82
2023/04/04 06:37:54;;;;;;;0.10;0.10;;;;;;;3.33;61.31;103123.84;5081781;28;20029;-82
2023/04/04 06:40:21;;;;;;;0.65;0.65;;;;;;;3.36;61.47;103130.97;5078323;28;20046;-82
2023/04/04 06:42:49;;;;;;;0.17;0.17;;;;;;;3.43;61.46;103126.91;5078536;28;20133;-81
2023/04/04 06:45:16;;;;;;;0.20;0.20;;;;;;;3.53;60.80;103124.78;5090896;28;20035;-82
2023/04/04 06:47:42;;;;;;;0.10;0.10;;;;;;;3.61;60.99;103132.09;5076794;28;20032;-82
2023/04/04 06:50:09;;;;;;;0.20;0.20;;;;;;;3.68;61.10;103126.31;5082244;28;20024;-83
2023/04/04 06:52:36;;;;;;;0.10;0.10;;;;;;;3.76;60.58;103132.78;5084572;28;20039;-82
2023/04/04 06:55:02;;;;;;;0.10;0.10;;;;;;;3.83;60.62;103139.22;5077449;28;20040;-82
2023/04/04 06:57:28;;;;;;;0.10;0.10;;;;;;;3.91;60.40;103142.19;5086544;28;20418;-82
2023/04/04 06:59:54;;;;;;;0.52;0.52;;;;;;;3.98;60.64;103146.88;5076895;28;20029;-83
2023/04/04 07:02:20;;;;;;;0.20;0.20;;;;;;;4.05;60.49;103149.84;5075787;28;20044;-82
2023/04/04 07:04:46;;;;;;;0.10;0.10;;;;;;;4.12;60.05;103150.97;5076058;28;20032;-82
2023/04/04 07:07:13;;;;;;;0.10;0.10;;;;;;;4.20;60.46;103140.84;5086654;28;20036;-83
2023/04/04 07:09:39;;;;;;;0.20;0.20;;;;;;;4.26;59.85;103140.19;5087560;28;20024;-82
2023/04/04 07:12:05;;;;;;;0.10;0.10;;;;;;;4.30;59.91;103142.13;5077577;28;20033;-82
2023/04/04 07:14:31;;;;;;;0.10;0.10;;;;;;;4.36;59.38;103142.38;5082305;28;20484;-83
2023/04/04 07:16:57;;;;;;;0.10;0.10;;;;;;;4.43;59.61;103138.31;5084946;28;20031;-83
2023/04/04 07:19:27;;;;;;;0.10;0.10;;;;;;;4.51;59.66;103137.81;5074484;28;20056;-84
2023/04/04 07:21:54;;;;;;;0.10;0.10;;;;;;;4.60;59.91;103141.63;5078761;28;20052;-84
2023/04/04 07:24:20;;;;;;;0.55;0.55;;;;;;;4.69;59.59;103142.91;5079315;28;20069;-84
2023/04/04 07:26:46;;;;;;;0.90;0.65;;;;;;;4.78;59.53;103144.13;5076168;28;20025;-85
2023/04/04 07:29:13;;;;;;;1.08;0.98;;;;;;;4.85;59.44;103149.69;5077966;28;20020;-86
2023/04/04 07:31:39;;;;;;;0.52;0.52;;;;;;;4.94;59.20;103157.06;5081374;28;20032;-84
2023/04/04 07:34:06;;;;;;;0.30;0.30;;;;;;;5.04;59.10;103155.69;5079650;28;20032;-83
2023/04/04 07:36:32;;;;;;;0.20;0.20;;;;;;;5.15;58.96;103154.38;5085577;28;20061;-84
2023/04/04 07:38:58;;;;;;;0.10;0.10;;;;;;;5.29;58.75;103148.78;5092195;28;20023;-84
2023/04/04 07:41:25;;;;;;;0.10;0.10;;;;;;;5.38;58.49;103135.09;5071380;28;20501;-84
2023/04/04 07:43:51;;;;;;;0.60;0.60;;;;;;;5.53;58.31;103135.69;5077673;28;20081;-83
2023/04/04 07:46:17;;;;;;;1.23;0.47;;;;;;;5.62;57.82;103132.50;5089480;28;20099;-83
2023/04/04 07:48:43;;;;;;;0.10;0.10;;;;;;;5.74;57.34;103127.69;5078427;28;20106;-85
2023/04/04 07:51:09;;;;;;;0.10;0.10;;;;;;;5.85;56.85;103128.09;5075537;28;20021;-84
2023/04/04 07:53:39;;;;;;;0.17;0.17;;;;;;;5.99;56.64;103118.09;5084952;28;20051;-85
2023/04/04 07:56:05;;;;;;;0.10;0.10;;;;;;;6.06;56.30;103129.75;5073333;28;20498;-82
2023/04/04 07:58:32;;;;;;;0.20;0.20;;;;;;;6.15;56.09;103128.31;5072906;28;20113;-82
2023/04/04 08:00:59;;;;;;;0.10;0.10;;;;;;;6.23;54.98;103131.25;5078977;28;20043;-82
2023/04/04 08:03:25;;;;;;;0.10;0.10;;;;;;;6.34;54.83;103128.94;5079657;28;20086;-82
2023/04/04 08:05:51;;;;;;;0.25;0.25;;;;;;;6.44;55.09;103120.56;5072680;28;20035;-82
2023/04/04 08:08:17;;;;;;;0.90;0.90;;;;;;;6.53;55.05;103124.31;5085285;28;20033;-82
2023/04/04 08:10:44;;;;;;;0.10;0.10;;;;;;;6.62;55.24;103117.63;5073604;28;20401;-82
2023/04/04 08:13:11;;;;;;;0.10;0.10;;;;;;;6.68;54.60;103122.22;5073539;28;20086;-82
2023/04/04 08:15:38;;;;;;;0.10;0.10;;;;;;;6.80;55.09;103119.06;5073539;28;20078;-82
2023/04/04 08:18:04;;;;;;;0.10;0.10;;;;;;;6.88;54.35;103117.59;5080547;28;20029;-82
2023/04/04 08:20:30;;;;;;;0.10;0.10;;;;;;;6.99;54.03;103125.84;5073277;28;20044;-82
2023/04/04 08:22:57;;;;;;;0.10;0.10;;;;;;;7.07;54.35;103116.41;5082192;28;20517;-80
2023/04/04 08:25:23;;;;;;;0.10;0.10;;;;;;;7.18;53.93;103126.38;5074299;28;20045;-81
2023/04/04 08:27:50;;;;;;;0.32;0.32;;;;;;;7.27;53.02;103116.13;5072551;28;20028;-81
2023/04/04 08:30:16;;;;;;;0.10;0.10;;;;;;;7.39;53.23;103116.50;5073323;28;20060;-82
2023/04/04 08:32:44;;;;;;;0.10;0.10;;;;;;;7.49;52.15;103116.75;5083250;28;20054;-82
2023/04/04 08:35:11;;;;;;;0.15;0.15;;;;;;;7.58;50.24;103111.78;5081348;28;20039;-82
2023/04/04 08:37:38;;;;;;;0.10;0.10;;;;;;;7.68;52.73;103107.66;5085156;28;20028;-83
2023/04/04 08:40:05;;;;;;;0.10;0.10;;;;;;;7.75;51.21;103113.16;5084515;28;20024;-83
2023/04/04 08:42:35;;;;;;;0.10;0.10;;;;;;;7.83;51.05;103102.81;5074338;28;20025;-81
2023/04/04 08:45:03;;;;;;;0.10;0.10;;;;;;;7.92;50.17;103110.06;5083395;28;20037;-82
2023/04/04 08:47:32;;;;;;;0.10;0.10;;;;;;;7.97;49.62;103099.66;5085145;28;20066;-80
2023/04/04 08:50:03;;;;;;;0.10;0.10;;;;;;;8.12;48.21;103105.34;5085638;28;20028;-82
2023/04/04 08:52:30;;;;;;;0.10;0.10;;;;;;;8.22;47.65;103102.09;5089679;28;20055;-81
2023/04/04 08:54:57;;;;;;;0.30;0.30;;;;;;;8.34;49.17;103104.16;5091669;28;20023;-81
2023/04/04 08:57:23;;;;;;;0.10;0.10;;;;;;;8.40;47.08;103101.66;5079483;28;20119;-80
2023/04/04 08:59:49;;;;;;;0.10;0.10;;;;;;;8.53;45.75;103097.59;5086501;28;20137;-82
2023/04/04 09:02:25;;;;;;;0.10;0.10;;;;;;;8.64;44.69;103097.88;5086521;28;20031;-81
2023/04/04 09:04:52;;;;;;;0.10;0.10;;;;;;;8.74;45.68;103105.16;5083448;28;20151;-83
2023/04/04 09:07:19;;;;;;;0.10;0.10;;;;;;;8.80;46.12;103100.88;5075854;28;20028;-80
2023/04/04 09:09:47;;;;;;;0.10;0.10;;;;;;;8.93;46.10;103102.97;5089513;28;20147;-81
2023/04/04 09:12:14;;;;;;;6.68;1.75;;;;;;;9.05;45.22;103105.88;5072961;28;20029;-82
2023/04/04 09:14:42;;;;;;;0.10;0.10;;;;;;;9.20;44.19;103101.81;5071871;28;20110;-81
2023/04/04 09:17:09;;;;;;;0.10;0.10;;;;;;;9.31;43.73;103110.88;5071824;28;20390;-82
2023/04/04 09:19:36;;;;;;;0.10;0.10;;;;;;;9.45;44.20;103097.06;5071623;28;20024;-82
2023/04/04 09:22:05;;;;;;;0.40;0.40;;;;;;;9.57;45.01;103097.31;5071525;28;20032;-81
2023/04/04 09:24:40;;;;;;;0.68;0.68;;;;;;;9.79;44.40;103103.91;5084027;28;20024;-82
2023/04/04 09:27:10;;;;;;;0.38;0.38;;;;;;;9.83;40.76;103103.13;5072352;28;20038;-80
2023/04/04 09:29:38;;;;;;;0.10;0.10;;;;;;;9.94;43.17;103103.31;5071503;28;20067;-79
2023/04/04 09:32:08;;;;;;;0.10;0.10;;;;;;;10.04;42.83;103109.66;5072268;28;20033;-82
2023/04/04 09:34:36;;;;;;;0.17;0.17;;;;;;;10.19;43.41;103098.47;5072354;28;20025;-82
2023/04/04 09:37:04;;;;;;;0.10;0.10;;;;;;;10.29;42.03;103095.13;5088025;28;20020;-81
2023/04/04 09:39:31;;;;;;;0.15;0.15;;;;;;;10.36;42.73;103096.16;5089720;28;20032;-81
2023/04/04 09:41:58;;;;;;;0.10;0.10;;;;;;;10.44;42.95;103105.13;5092606;28;20036;-82
2023/04/04 09:44:24;;;;;;;0.40;0.35;;;;;;;10.51;41.56;103093.75;5092027;28;20488;-82
2023/04/04 09:46:51;;;;;;;0.10;0.10;;;;;;;10.48;39.29;103084.84;5077570;28;20051;-82
2023/04/04 09:49:21;;;;;;;0.10;0.10;;;;;;;10.68;41.17;103082.53;5071969;28;20099;-82
2023/04/04 09:51:53;;;;;;;0.10;0.10;;;;;;;10.81;40.74;103078.31;5071973;28;20032;-82
2023/04/04 09:54:22;;;;;;;0.10;0.10;;;;;;;10.84;38.62;103073.94;5081807;28;20040;-82
2023/04/04 09:56:50;;;;;;;0.10;0.10;;;;;;;10.88;38.79;103080.19;5072331;28;20047;-80
2023/04/04 09:59:17;;;;;;;0.10;0.10;;;;;;;10.88;39.07;103076.63;5071604;28;20032;-82
2023/04/04 10:01:44;;;;;;;0.10;0.10;;;;;;;10.98;39.40;103074.13;5085149;28;20059;-82
2023/04/04 10:04:12;;;;;;;0.10;0.10;;;;;;;11.02;39.29;103076.84;5082463;28;20025;-82
2023/04/04 10:06:38;;;;;;;0.10;0.10;;;;;;;11.08;39.26;103082.22;5076486;28;20461;-81
2023/04/04 10:09:07;;;;;;;0.10;0.10;;;;;;;11.07;37.81;103077.81;5081766;28;20059;-82
2023/04/04 10:11:37;;;;;;;0.38;0.38;;;;;;;11.12;39.61;103084.06;5081789;28;20032;-82
2023/04/04 10:14:03;;;;;;;0.10;0.10;;;;;;;11.15;36.42;103081.44;5086629;28;20032;-81
2023/04/04 10:16:37;;;;;;;0.10;0.10;;;;;;;11.21;37.92;103077.97;5087576;28;20131;-79
2023/04/04 10:19:06;;;;;;;0.10;0.10;;;;;;;11.18;37.00;103068.22;5084321;28;20080;-79
2023/04/04 10:21:33;;;;;;;0.10;0.10;;;;;;;11.24;38.85;103075.34;5084700;28;20044;-79
2023/04/04 10:24:02;;;;;;;0.10;0.10;;;;;;;11.30;39.36;103083.41;5092427;28;20036;-80
2023/04/04 10:26:28;;;;;;;0.10;0.10;;;;;;;11.46;38.24;103079.19;5089196;28;20024;-82
2023/04/04 10:28:55;;;;;;;0.10;0.10;;;;;;;11.48;36.52;103064.16;5075903;28;20029;-82
2023/04/04 10:31:24;;;;;;;0.10;0.10;;;;;;;11.48;37.28;103078.31;5076280;28;20032;-82
2023/04/04 10:34:12;;;;;;;0.10;0.10;;;;;;;11.57;38.21;103064.25;5076610;28;20028;-82
2023/04/04 10:36:50;;;;;;;0.00;0.00;;;;;;;11.63;37.32;103066.13;5090179;28;20618;-81
2023/04/04 10:39:39;;;;;;;0.10;0.10;;;;;;;11.66;37.25;103060.81;5091225;28;20024;-82
2023/04/04 10:42:06;;;;;;;0.30;0.30;;;;;;;11.67;36.70;103061.72;5093481;28;20032;-81
2023/04/04 10:44:37;;;;;;;0.10;0.10;;;;;;;11.75;37.52;103057.38;5096750;28;20050;-82
2023/04/04 10:47:24;;;;;;;0.10;0.10;;;;;;;11.88;36.23;103056.63;5097038;28;20028;-82
2023/04/04 10:49:51;;;;;;;0.10;0.10;;;;;;;11.91;35.76;103051.38;5096214;28;20027;-82
2023/04/04 10:52:21;;;;;;;2.10;1.23;;;;;;;11.96;35.80;103046.09;5095988;28;20047;-80
2023/04/04 10:54:51;;;;;;;0.10;0.10;;;;;;;12.07;35.58;103051.53;5091322;28;20447;-81
2023/04/04 10:57:18;;;;;;;0.10;0.10;;;;;;;12.05;35.34;103042.66;5096097;28;20028;-80
2023/04/04 11:00:08;;;;;;;0.10;0.10;;;;;;;12.20;36.52;103053.44;5095454;28;20044;-81
2023/04/04 11:02:56;;;;;;;0.00;0.00;;;;;;;12.23;35.65;103033.97;5096361;28;20404;-81
2023/04/04 11:08:03;;;;;;;0.10;0.10;;;;;;;12.27;34.74;103020.72;5163346;27;20356;-82
2023/04/04 11:10:35;;;;;;;0.45;0.38;;;;;;;12.34;34.68;103024.28;5114824;27;20036;-83
2023/04/04 11:13:08;;;;;;;0.20;0.20;;;;;;;12.44;36.45;103019.94;5121431;28;20028;-82
2023/04/04 11:16:14;;;;;;;1.90;1.75;;;;;;;12.46;36.00;103021.72;5131161;27;20027;-82
2023/04/04 11:21:22;;;;;;;0.20;0.20;;;;;;;12.53;37.14;103012.00;5103060;27;20140;-82
2023/04/04 11:29:06;;;;;;;0.00;0.00;;;;;;;13.02;35.64;103002.53;5060949;27;20913;-82
2023/04/04 11:34:12;;;;;;;0.00;0.00;;;;;;;13.07;35.20;103006.09;5045499;28;22305;-83
2023/04/04 11:39:26;;;;;;;0.10;0.10;;;;;;;13.09;35.13;102993.69;5095759;27;1181557;-80
2023/04/04 11:42:12;;;;;;;0.10;0.10;;;;;;;13.26;34.87;102991.97;5107691;28;20035;-81
2023/04/04 11:44:41;;;;;;;0.10;0.10;;;;;;;13.27;34.89;102985.78;5100808;28;20027;-81
2023/04/04 11:49:46;;;;;;;0.10;0.10;;;;;;;13.44;35.15;102984.97;5080608;28;20411;-81
2023/04/04 11:52:15;;;;;;;0.22;0.22;;;;;;;13.56;35.12;102982.31;5063212;28;20035;-81
2023/04/04 11:54:42;;;;;;;0.05;0.05;;;;;;;13.51;33.49;102975.22;5067394;28;20039;-81
2023/04/04 11:57:13;;;;;;;0.10;0.10;;;;;;;13.67;34.71;102970.78;5056719;28;20371;-81